sensor_id;sensor_type;location;lat;lon;timestamp;P1;durP1;ratioP1;P2;durP2;ratioP2
48215;SDS011;34005;48.844;10.098;2023-07-02T00:00:50;5.22;;;1.92;;
48215;SDS011;34005;48.844;10.098;2023-07-02T00:03:19;2.10;;;1.90;;
48215;SDS011;34005;48.844;10.098;2023-07-02T00:05:48;2.65;;;2.40;;
48215;SDS011;34005;48.844;10.098;2023-07-02T00:08:17;2.53;;;2.20;;
48215;SDS011;34005;48.844;10.098;2023-07-02T00:10:44;3.92;;;2.05;;
48215;SDS011;34005;48.844;10.098;2023-07-02T00:13:12;2.53;;;2.33;;
48215;SDS011;34005;48.844;10.098;2023-07-02T00:15:40;4.47;;;2.22;;
48215;SDS011;34005;48.844;10.098;2023-07-02T00:18:08;3.28;;;2.33;;
48215;SDS011;34005;48.844;10.098;2023-07-02T00:20:37;2.42;;;2.22;;
48215;SDS011;34005;48.844;10.098;2023-07-02T00:23:04;2.40;;;2.20;;
48215;SDS011;34005;48.844;10.098;2023-07-02T00:25:33;2.28;;;2.08;;
48215;SDS011;34005;48.844;10.098;2023-07-02T00:28:01;2.60;;;2.00;;
48215;SDS011;34005;48.844;10.098;2023-07-02T00:30:29;3.45;;;2.20;;
48215;SDS011;34005;48.844;10.098;2023-07-02T00:32:57;2.60;;;2.28;;
48215;SDS011;34005;48.844;10.098;2023-07-02T00:35:24;3.22;;;2.92;;
48215;SDS011;34005;48.844;10.098;2023-07-02T00:37:53;2.25;;;2.05;;
48215;SDS011;34005;48.844;10.098;2023-07-02T00:40:21;3.08;;;2.25;;
48215;SDS011;34005;48.844;10.098;2023-07-02T00:42:48;2.45;;;2.00;;
48215;SDS011;34005;48.844;10.098;2023-07-02T00:45:16;4.85;;;2.13;;
48215;SDS011;34005;48.844;10.098;2023-07-02T00:47:44;2.28;;;2.10;;
48215;SDS011;34005;48.844;10.098;2023-07-02T00:50:12;2.70;;;2.50;;
48215;SDS011;34005;48.844;10.098;2023-07-02T00:52:40;2.33;;;2.13;;
48215;SDS011;34005;48.844;10.098;2023-07-02T00:55:09;3.17;;;2.88;;
48215;SDS011;34005;48.844;10.098;2023-07-02T00:57:37;2.53;;;2.33;;
48215;SDS011;34005;48.844;10.098;2023-07-02T01:00:07;3.00;;;2.33;;
48215;SDS011;34005;48.844;10.098;2023-07-02T01:02:35;6.13;;;2.55;;
48215;SDS011;34005;48.844;10.098;2023-07-02T01:05:04;2.58;;;2.15;;
48215;SDS011;34005;48.844;10.098;2023-07-02T01:07:32;3.30;;;2.05;;
48215;SDS011;34005;48.844;10.098;2023-07-02T01:10:00;4.40;;;2.83;;
48215;SDS011;34005;48.844;10.098;2023-07-02T01:12:29;3.88;;;2.60;;
48215;SDS011;34005;48.844;10.098;2023-07-02T01:14:58;2.95;;;2.05;;
48215;SDS011;34005;48.844;10.098;2023-07-02T01:17:29;2.45;;;1.75;;
48215;SDS011;34005;48.844;10.098;2023-07-02T01:20:06;2.80;;;2.45;;
48215;SDS011;34005;48.844;10.098;2023-07-02T01:22:35;2.00;;;1.80;;
48215;SDS011;34005;48.844;10.098;2023-07-02T01:25:03;3.25;;;2.15;;
48215;SDS011;34005;48.844;10.098;2023-07-02T01:27:32;1.90;;;1.80;;
48215;SDS011;34005;48.844;10.098;2023-07-02T01:30:01;3.92;;;2.60;;
48215;SDS011;34005;48.844;10.098;2023-07-02T01:32:30;2.63;;;2.10;;
48215;SDS011;34005;48.844;10.098;2023-07-02T01:34:58;2.47;;;2.10;;
48215;SDS011;34005;48.844;10.098;2023-07-02T01:37:28;3.70;;;2.50;;
48215;SDS011;34005;48.844;10.098;2023-07-02T01:40:03;4.22;;;2.22;;
48215;SDS011;34005;48.844;10.098;2023-07-02T01:42:32;3.45;;;2.63;;
48215;SDS011;34005;48.844;10.098;2023-07-02T01:44:59;2.85;;;2.20;;
48215;SDS011;34005;48.844;10.098;2023-07-02T01:47:27;2.63;;;2.38;;
48215;SDS011;34005;48.844;10.098;2023-07-02T01:49:55;3.90;;;1.88;;
48215;SDS011;34005;48.844;10.098;2023-07-02T01:52:22;3.55;;;2.20;;
48215;SDS011;34005;48.844;10.098;2023-07-02T01:54:51;3.53;;;2.50;;
48215;SDS011;34005;48.844;10.098;2023-07-02T01:57:19;2.75;;;1.85;;
48215;SDS011;34005;48.844;10.098;2023-07-02T01:59:47;2.85;;;2.25;;
48215;SDS011;34005;48.844;10.098;2023-07-02T02:02:14;2.97;;;2.00;;
48215;SDS011;34005;48.844;10.098;2023-07-02T02:04:42;4.72;;;2.60;;
48215;SDS011;34005;48.844;10.098;2023-07-02T02:07:10;3.35;;;2.50;;
48215;SDS011;34005;48.844;10.098;2023-07-02T02:09:37;2.78;;;2.58;;
48215;SDS011;34005;48.844;10.098;2023-07-02T02:12:06;3.08;;;2.78;;
48215;SDS011;34005;48.844;10.098;2023-07-02T02:14:34;2.30;;;1.92;;
48215;SDS011;34005;48.844;10.098;2023-07-02T02:17:02;4.35;;;2.28;;
48215;SDS011;34005;48.844;10.098;2023-07-02T02:19:30;3.45;;;2.55;;
48215;SDS011;34005;48.844;10.098;2023-07-02T02:21:58;3.00;;;2.35;;
48215;SDS011;34005;48.844;10.098;2023-07-02T02:24:25;3.15;;;2.15;;
48215;SDS011;34005;48.844;10.098;2023-07-02T02:26:53;2.80;;;2.22;;
48215;SDS011;34005;48.844;10.098;2023-07-02T02:29:22;4.07;;;2.10;;
48215;SDS011;34005;48.844;10.098;2023-07-02T02:31:49;4.88;;;2.40;;
48215;SDS011;34005;48.844;10.098;2023-07-02T02:34:17;2.78;;;2.15;;
48215;SDS011;34005;48.844;10.098;2023-07-02T02:36:45;3.05;;;2.30;;
48215;SDS011;34005;48.844;10.098;2023-07-02T02:39:13;2.30;;;2.05;;
48215;SDS011;34005;48.844;10.098;2023-07-02T02:41:41;3.70;;;2.63;;
48215;SDS011;34005;48.844;10.098;2023-07-02T02:44:08;2.70;;;2.50;;
48215;SDS011;34005;48.844;10.098;2023-07-02T02:46:37;3.08;;;2.22;;
48215;SDS011;34005;48.844;10.098;2023-07-02T02:49:05;2.35;;;2.10;;
48215;SDS011;34005;48.844;10.098;2023-07-02T02:51:32;2.38;;;2.17;;
48215;SDS011;34005;48.844;10.098;2023-07-02T02:54:00;2.45;;;2.17;;
48215;SDS011;34005;48.844;10.098;2023-07-02T02:56:28;3.40;;;2.28;;
48215;SDS011;34005;48.844;10.098;2023-07-02T02:58:55;2.95;;;2.22;;
48215;SDS011;34005;48.844;10.098;2023-07-02T03:01:23;3.38;;;1.80;;
48215;SDS011;34005;48.844;10.098;2023-07-02T03:03:52;3.28;;;2.10;;
48215;SDS011;34005;48.844;10.098;2023-07-02T03:06:19;3.20;;;2.45;;
48215;SDS011;34005;48.844;10.098;2023-07-02T03:08:47;2.55;;;1.95;;
48215;SDS011;34005;48.844;10.098;2023-07-02T03:11:14;2.08;;;1.88;;
48215;SDS011;34005;48.844;10.098;2023-07-02T03:13:42;3.30;;;1.85;;
48215;SDS011;34005;48.844;10.098;2023-07-02T03:16:09;2.25;;;2.05;;
48215;SDS011;34005;48.844;10.098;2023-07-02T03:18:37;4.63;;;2.55;;
48215;SDS011;34005;48.844;10.098;2023-07-02T03:21:06;5.97;;;2.67;;
48215;SDS011;34005;48.844;10.098;2023-07-02T03:23:34;2.22;;;2.03;;
48215;SDS011;34005;48.844;10.098;2023-07-02T03:26:01;2.60;;;2.40;;
48215;SDS011;34005;48.844;10.098;2023-07-02T03:28:29;3.40;;;2.17;;
48215;SDS011;34005;48.844;10.098;2023-07-02T03:30:56;3.85;;;2.30;;
48215;SDS011;34005;48.844;10.098;2023-07-02T03:33:24;3.90;;;2.38;;
48215;SDS011;34005;48.844;10.098;2023-07-02T03:35:51;2.90;;;2.25;;
48215;SDS011;34005;48.844;10.098;2023-07-02T03:38:20;3.40;;;2.40;;
48215;SDS011;34005;48.844;10.098;2023-07-02T03:40:48;2.20;;;2.00;;
48215;SDS011;34005;48.844;10.098;2023-07-02T03:43:16;2.10;;;1.90;;
48215;SDS011;34005;48.844;10.098;2023-07-02T03:45:43;2.35;;;2.00;;
48215;SDS011;34005;48.844;10.098;2023-07-02T03:48:11;4.20;;;2.60;;
48215;SDS011;34005;48.844;10.098;2023-07-02T03:50:39;3.65;;;2.13;;
48215;SDS011;34005;48.844;10.098;2023-07-02T03:53:06;3.10;;;2.42;;
48215;SDS011;34005;48.844;10.098;2023-07-02T03:55:36;3.17;;;2.13;;
48215;SDS011;34005;48.844;10.098;2023-07-02T03:58:05;2.50;;;1.95;;
48215;SDS011;34005;48.844;10.098;2023-07-02T04:00:32;3.38;;;2.05;;
48215;SDS011;34005;48.844;10.098;2023-07-02T04:03:00;3.78;;;2.70;;
48215;SDS011;34005;48.844;10.098;2023-07-02T04:05:28;2.60;;;2.40;;
48215;SDS011;34005;48.844;10.098;2023-07-02T04:07:56;3.25;;;2.03;;
48215;SDS011;34005;48.844;10.098;2023-07-02T04:10:23;3.50;;;2.00;;
48215;SDS011;34005;48.844;10.098;2023-07-02T04:12:52;2.70;;;2.42;;
48215;SDS011;34005;48.844;10.098;2023-07-02T04:15:20;4.50;;;2.15;;
48215;SDS011;34005;48.844;10.098;2023-07-02T04:17:47;3.55;;;2.30;;
48215;SDS011;34005;48.844;10.098;2023-07-02T04:20:15;4.25;;;2.25;;
48215;SDS011;34005;48.844;10.098;2023-07-02T04:22:45;2.53;;;2.03;;
48215;SDS011;34005;48.844;10.098;2023-07-02T04:25:12;3.88;;;2.33;;
48215;SDS011;34005;48.844;10.098;2023-07-02T04:28:04;4.25;;;2.00;;
48215;SDS011;34005;48.844;10.098;2023-07-02T04:30:32;2.95;;;2.30;;
48215;SDS011;34005;48.844;10.098;2023-07-02T04:32:59;2.10;;;1.95;;
48215;SDS011;34005;48.844;10.098;2023-07-02T04:35:27;5.90;;;2.45;;
48215;SDS011;34005;48.844;10.098;2023-07-02T04:37:54;3.83;;;2.67;;
48215;SDS011;34005;48.844;10.098;2023-07-02T04:40:23;3.00;;;2.70;;
48215;SDS011;34005;48.844;10.098;2023-07-02T04:42:51;3.70;;;2.72;;
48215;SDS011;34005;48.844;10.098;2023-07-02T04:45:25;2.60;;;2.30;;
48215;SDS011;34005;48.844;10.098;2023-07-02T04:47:58;3.63;;;2.60;;
48215;SDS011;34005;48.844;10.098;2023-07-02T04:50:27;5.25;;;3.08;;
48215;SDS011;34005;48.844;10.098;2023-07-02T04:52:54;4.30;;;3.20;;
48215;SDS011;34005;48.844;10.098;2023-07-02T04:55:22;3.55;;;2.78;;
48215;SDS011;34005;48.844;10.098;2023-07-02T04:57:50;4.57;;;3.10;;
48215;SDS011;34005;48.844;10.098;2023-07-02T05:00:17;5.03;;;3.35;;
48215;SDS011;34005;48.844;10.098;2023-07-02T05:02:47;5.18;;;3.55;;
48215;SDS011;34005;48.844;10.098;2023-07-02T05:05:14;3.92;;;2.70;;
48215;SDS011;34005;48.844;10.098;2023-07-02T05:07:42;4.93;;;3.75;;
48215;SDS011;34005;48.844;10.098;2023-07-02T05:10:10;3.85;;;3.22;;
48215;SDS011;34005;48.844;10.098;2023-07-02T05:12:37;4.18;;;2.63;;
48215;SDS011;34005;48.844;10.098;2023-07-02T05:15:05;4.13;;;3.00;;
48215;SDS011;34005;48.844;10.098;2023-07-02T05:17:33;6.78;;;3.53;;
48215;SDS011;34005;48.844;10.098;2023-07-02T05:20:04;6.88;;;3.88;;
48215;SDS011;34005;48.844;10.098;2023-07-02T05:22:32;4.57;;;3.58;;
48215;SDS011;34005;48.844;10.098;2023-07-02T05:25:00;5.55;;;4.00;;
48215;SDS011;34005;48.844;10.098;2023-07-02T05:27:28;4.72;;;3.65;;
48215;SDS011;34005;48.844;10.098;2023-07-02T05:29:55;6.25;;;4.40;;
48215;SDS011;34005;48.844;10.098;2023-07-02T05:32:23;5.65;;;4.15;;
48215;SDS011;34005;48.844;10.098;2023-07-02T05:34:51;7.63;;;4.43;;
48215;SDS011;34005;48.844;10.098;2023-07-02T05:37:20;5.80;;;3.75;;
48215;SDS011;34005;48.844;10.098;2023-07-02T05:39:48;6.90;;;4.20;;
48215;SDS011;34005;48.844;10.098;2023-07-02T05:42:16;8.35;;;5.18;;
48215;SDS011;34005;48.844;10.098;2023-07-02T05:44:43;7.68;;;6.30;;
48215;SDS011;34005;48.844;10.098;2023-07-02T05:47:11;13.98;;;6.68;;
48215;SDS011;34005;48.844;10.098;2023-07-02T05:49:40;9.75;;;6.53;;
48215;SDS011;34005;48.844;10.098;2023-07-02T05:52:08;13.02;;;6.07;;
48215;SDS011;34005;48.844;10.098;2023-07-02T05:54:39;14.95;;;7.05;;
48215;SDS011;34005;48.844;10.098;2023-07-02T05:57:07;8.50;;;5.60;;
48215;SDS011;34005;48.844;10.098;2023-07-02T05:59:35;9.45;;;6.47;;
48215;SDS011;34005;48.844;10.098;2023-07-02T06:02:02;10.07;;;6.00;;
48215;SDS011;34005;48.844;10.098;2023-07-02T06:04:30;8.70;;;5.90;;
48215;SDS011;34005;48.844;10.098;2023-07-02T06:06:58;10.48;;;6.72;;
48215;SDS011;34005;48.844;10.098;2023-07-02T06:09:25;8.23;;;6.18;;
48215;SDS011;34005;48.844;10.098;2023-07-02T06:12:00;11.85;;;6.22;;
48215;SDS011;34005;48.844;10.098;2023-07-02T06:14:27;10.35;;;6.47;;
48215;SDS011;34005;48.844;10.098;2023-07-02T06:16:55;10.77;;;6.90;;
48215;SDS011;34005;48.844;10.098;2023-07-02T06:19:25;8.38;;;6.53;;
48215;SDS011;34005;48.844;10.098;2023-07-02T06:21:52;9.52;;;6.18;;
48215;SDS011;34005;48.844;10.098;2023-07-02T06:24:20;9.45;;;5.85;;
48215;SDS011;34005;48.844;10.098;2023-07-02T06:26:48;10.57;;;5.90;;
48215;SDS011;34005;48.844;10.098;2023-07-02T06:29:17;10.05;;;5.75;;
48215;SDS011;34005;48.844;10.098;2023-07-02T06:31:44;10.45;;;6.30;;
48215;SDS011;34005;48.844;10.098;2023-07-02T06:34:12;12.93;;;6.35;;
48215;SDS011;34005;48.844;10.098;2023-07-02T06:36:40;10.98;;;5.85;;
48215;SDS011;34005;48.844;10.098;2023-07-02T06:39:08;10.85;;;5.38;;
48215;SDS011;34005;48.844;10.098;2023-07-02T06:41:36;8.18;;;5.22;;
48215;SDS011;34005;48.844;10.098;2023-07-02T06:44:04;8.93;;;4.93;;
48215;SDS011;34005;48.844;10.098;2023-07-02T06:46:32;10.40;;;5.60;;
48215;SDS011;34005;48.844;10.098;2023-07-02T06:49:00;7.72;;;5.03;;
48215;SDS011;34005;48.844;10.098;2023-07-02T06:51:28;9.75;;;5.28;;
48215;SDS011;34005;48.844;10.098;2023-07-02T06:53:55;7.05;;;4.80;;
48215;SDS011;34005;48.844;10.098;2023-07-02T06:56:23;8.40;;;5.65;;
48215;SDS011;34005;48.844;10.098;2023-07-02T06:58:50;8.68;;;5.35;;
48215;SDS011;34005;48.844;10.098;2023-07-02T07:01:20;8.05;;;5.38;;
48215;SDS011;34005;48.844;10.098;2023-07-02T07:03:49;11.32;;;5.63;;
48215;SDS011;34005;48.844;10.098;2023-07-02T07:06:17;8.63;;;5.07;;
48215;SDS011;34005;48.844;10.098;2023-07-02T07:08:46;10.05;;;5.20;;
48215;SDS011;34005;48.844;10.098;2023-07-02T07:11:14;9.00;;;5.38;;
48215;SDS011;34005;48.844;10.098;2023-07-02T07:13:42;12.85;;;6.07;;
48215;SDS011;34005;48.844;10.098;2023-07-02T07:16:11;10.73;;;6.95;;
48215;SDS011;34005;48.844;10.098;2023-07-02T07:18:39;8.20;;;6.07;;
48215;SDS011;34005;48.844;10.098;2023-07-02T07:21:08;8.10;;;5.57;;
48215;SDS011;34005;48.844;10.098;2023-07-02T07:23:36;9.60;;;5.97;;
48215;SDS011;34005;48.844;10.098;2023-07-02T07:26:04;10.35;;;6.22;;
48215;SDS011;34005;48.844;10.098;2023-07-02T07:28:32;8.60;;;5.82;;
48215;SDS011;34005;48.844;10.098;2023-07-02T07:31:00;13.65;;;6.93;;
48215;SDS011;34005;48.844;10.098;2023-07-02T07:33:27;15.65;;;6.85;;
48215;SDS011;34005;48.844;10.098;2023-07-02T07:38:53;10.02;;;6.72;;
48215;SDS011;34005;48.844;10.098;2023-07-02T07:41:24;12.38;;;7.55;;
48215;SDS011;34005;48.844;10.098;2023-07-02T07:43:51;13.70;;;7.68;;
48215;SDS011;34005;48.844;10.098;2023-07-02T07:46:19;13.93;;;8.18;;
48215;SDS011;34005;48.844;10.098;2023-07-02T07:48:50;10.05;;;7.15;;
48215;SDS011;34005;48.844;10.098;2023-07-02T07:51:17;13.40;;;7.70;;
48215;SDS011;34005;48.844;10.098;2023-07-02T07:53:45;13.70;;;8.52;;
48215;SDS011;34005;48.844;10.098;2023-07-02T07:56:14;15.90;;;8.93;;
48215;SDS011;34005;48.844;10.098;2023-07-02T07:58:42;13.50;;;7.95;;
48215;SDS011;34005;48.844;10.098;2023-07-02T08:01:10;12.07;;;7.32;;
48215;SDS011;34005;48.844;10.098;2023-07-02T08:03:37;15.13;;;7.95;;
48215;SDS011;34005;48.844;10.098;2023-07-02T08:06:05;12.75;;;6.90;;
48215;SDS011;34005;48.844;10.098;2023-07-02T08:08:35;14.68;;;8.43;;
48215;SDS011;34005;48.844;10.098;2023-07-02T08:11:03;12.52;;;7.80;;
48215;SDS011;34005;48.844;10.098;2023-07-02T08:13:31;14.68;;;8.57;;
48215;SDS011;34005;48.844;10.098;2023-07-02T08:15:59;14.32;;;7.85;;
48215;SDS011;34005;48.844;10.098;2023-07-02T08:18:27;13.70;;;7.88;;
48215;SDS011;34005;48.844;10.098;2023-07-02T08:20:54;12.55;;;7.78;;
48215;SDS011;34005;48.844;10.098;2023-07-02T08:23:22;14.63;;;7.68;;
48215;SDS011;34005;48.844;10.098;2023-07-02T08:25:49;13.15;;;8.32;;
48215;SDS011;34005;48.844;10.098;2023-07-02T08:28:17;16.17;;;8.52;;
48215;SDS011;34005;48.844;10.098;2023-07-02T08:30:46;13.93;;;8.48;;
48215;SDS011;34005;48.844;10.098;2023-07-02T08:33:14;15.07;;;9.05;;
48215;SDS011;34005;48.844;10.098;2023-07-02T08:35:42;13.43;;;8.27;;
48215;SDS011;34005;48.844;10.098;2023-07-02T08:38:09;14.38;;;8.60;;
48215;SDS011;34005;48.844;10.098;2023-07-02T08:40:37;15.68;;;9.10;;
48215;SDS011;34005;48.844;10.098;2023-07-02T08:43:04;14.68;;;8.20;;
48215;SDS011;34005;48.844;10.098;2023-07-02T08:45:32;12.65;;;8.68;;
48215;SDS011;34005;48.844;10.098;2023-07-02T08:48:01;17.58;;;8.32;;
48215;SDS011;34005;48.844;10.098;2023-07-02T08:50:29;15.75;;;8.15;;
48215;SDS011;34005;48.844;10.098;2023-07-02T08:52:57;14.52;;;8.45;;
48215;SDS011;34005;48.844;10.098;2023-07-02T08:55:25;10.93;;;7.55;;
48215;SDS011;34005;48.844;10.098;2023-07-02T08:57:53;12.25;;;7.65;;
48215;SDS011;34005;48.844;10.098;2023-07-02T09:00:22;14.13;;;8.63;;
48215;SDS011;34005;48.844;10.098;2023-07-02T09:02:49;13.95;;;8.55;;
48215;SDS011;34005;48.844;10.098;2023-07-02T09:05:18;14.82;;;9.05;;
48215;SDS011;34005;48.844;10.098;2023-07-02T09:07:46;15.50;;;8.48;;
48215;SDS011;34005;48.844;10.098;2023-07-02T09:10:26;13.07;;;8.77;;
48215;SDS011;34005;48.844;10.098;2023-07-02T09:13:04;13.38;;;8.40;;
48215;SDS011;34005;48.844;10.098;2023-07-02T09:15:35;13.52;;;8.95;;
48215;SDS011;34005;48.844;10.098;2023-07-02T09:18:13;18.13;;;9.93;;
48215;SDS011;34005;48.844;10.098;2023-07-02T09:20:43;12.50;;;8.73;;
48215;SDS011;34005;48.844;10.098;2023-07-02T09:23:12;17.38;;;9.35;;
48215;SDS011;34005;48.844;10.098;2023-07-02T09:25:40;17.73;;;10.00;;
48215;SDS011;34005;48.844;10.098;2023-07-02T09:28:14;16.63;;;9.77;;
48215;SDS011;34005;48.844;10.098;2023-07-02T09:30:49;15.93;;;9.77;;
48215;SDS011;34005;48.844;10.098;2023-07-02T09:33:18;17.02;;;8.98;;
48215;SDS011;34005;48.844;10.098;2023-07-02T09:35:47;16.15;;;8.63;;
48215;SDS011;34005;48.844;10.098;2023-07-02T09:38:16;16.02;;;9.20;;
48215;SDS011;34005;48.844;10.098;2023-07-02T09:40:45;15.90;;;9.65;;
48215;SDS011;34005;48.844;10.098;2023-07-02T09:43:15;16.83;;;9.68;;
48215;SDS011;34005;48.844;10.098;2023-07-02T09:45:43;17.30;;;9.70;;
48215;SDS011;34005;48.844;10.098;2023-07-02T09:48:12;15.02;;;9.65;;
48215;SDS011;34005;48.844;10.098;2023-07-02T09:50:42;14.70;;;9.90;;
48215;SDS011;34005;48.844;10.098;2023-07-02T09:53:12;18.20;;;10.73;;
48215;SDS011;34005;48.844;10.098;2023-07-02T09:55:41;16.50;;;10.20;;
48215;SDS011;34005;48.844;10.098;2023-07-02T09:58:10;18.00;;;10.52;;
48215;SDS011;34005;48.844;10.098;2023-07-02T10:00:38;17.70;;;11.25;;
48215;SDS011;34005;48.844;10.098;2023-07-02T10:03:06;15.93;;;9.43;;
48215;SDS011;34005;48.844;10.098;2023-07-02T10:05:34;15.60;;;9.93;;
48215;SDS011;34005;48.844;10.098;2023-07-02T10:08:12;16.38;;;10.05;;
48215;SDS011;34005;48.844;10.098;2023-07-02T10:10:41;17.50;;;10.13;;
48215;SDS011;34005;48.844;10.098;2023-07-02T10:13:09;18.48;;;10.50;;
48215;SDS011;34005;48.844;10.098;2023-07-02T10:15:36;14.55;;;9.73;;
48215;SDS011;34005;48.844;10.098;2023-07-02T10:18:06;14.02;;;8.98;;
48215;SDS011;34005;48.844;10.098;2023-07-02T10:20:34;15.63;;;9.30;;
48215;SDS011;34005;48.844;10.098;2023-07-02T10:23:03;17.08;;;9.57;;
48215;SDS011;34005;48.844;10.098;2023-07-02T10:25:33;18.50;;;10.38;;
48215;SDS011;34005;48.844;10.098;2023-07-02T10:28:13;17.25;;;10.60;;
48215;SDS011;34005;48.844;10.098;2023-07-02T10:30:42;16.20;;;9.82;;
48215;SDS011;34005;48.844;10.098;2023-07-02T10:33:10;19.27;;;10.00;;
48215;SDS011;34005;48.844;10.098;2023-07-02T10:35:39;16.33;;;9.68;;
48215;SDS011;34005;48.844;10.098;2023-07-02T10:38:13;18.85;;;10.00;;
48215;SDS011;34005;48.844;10.098;2023-07-02T10:40:43;14.88;;;9.45;;
48215;SDS011;34005;48.844;10.098;2023-07-02T10:43:11;14.60;;;9.07;;
48215;SDS011;34005;48.844;10.098;2023-07-02T10:45:39;16.88;;;9.02;;
48215;SDS011;34005;48.844;10.098;2023-07-02T10:48:08;12.77;;;8.88;;
48215;SDS011;34005;48.844;10.098;2023-07-02T10:50:36;14.68;;;9.77;;
48215;SDS011;34005;48.844;10.098;2023-07-02T10:53:04;16.25;;;9.52;;
48215;SDS011;34005;48.844;10.098;2023-07-02T10:55:32;13.82;;;9.20;;
48215;SDS011;34005;48.844;10.098;2023-07-02T10:58:04;14.95;;;9.10;;
48215;SDS011;34005;48.844;10.098;2023-07-02T11:00:32;18.38;;;10.30;;
48215;SDS011;34005;48.844;10.098;2023-07-02T11:03:15;13.48;;;9.23;;
48215;SDS011;34005;48.844;10.098;2023-07-02T11:05:45;17.90;;;9.32;;
48215;SDS011;34005;48.844;10.098;2023-07-02T11:08:14;15.80;;;8.95;;
48215;SDS011;34005;48.844;10.098;2023-07-02T11:10:42;15.00;;;9.02;;
48215;SDS011;34005;48.844;10.098;2023-07-02T11:13:12;15.55;;;9.02;;
48215;SDS011;34005;48.844;10.098;2023-07-02T11:15:39;15.18;;;8.88;;
48215;SDS011;34005;48.844;10.098;2023-07-02T11:18:08;15.18;;;9.35;;
48215;SDS011;34005;48.844;10.098;2023-07-02T11:20:36;17.02;;;9.60;;
48215;SDS011;34005;48.844;10.098;2023-07-02T11:23:05;15.52;;;9.77;;
48215;SDS011;34005;48.844;10.098;2023-07-02T11:25:53;12.73;;;9.63;;
48215;SDS011;34005;48.844;10.098;2023-07-02T11:28:23;13.77;;;9.40;;
48215;SDS011;34005;48.844;10.098;2023-07-02T11:30:51;14.38;;;9.52;;
48215;SDS011;34005;48.844;10.098;2023-07-02T11:33:20;12.60;;;8.63;;
48215;SDS011;34005;48.844;10.098;2023-07-02T11:35:47;14.32;;;9.23;;
48215;SDS011;34005;48.844;10.098;2023-07-02T11:38:15;11.38;;;8.40;;
48215;SDS011;34005;48.844;10.098;2023-07-02T11:40:43;14.77;;;9.65;;
48215;SDS011;34005;48.844;10.098;2023-07-02T11:43:12;16.42;;;9.13;;
48215;SDS011;34005;48.844;10.098;2023-07-02T11:45:41;15.02;;;8.45;;
48215;SDS011;34005;48.844;10.098;2023-07-02T11:48:10;13.05;;;9.52;;
48215;SDS011;34005;48.844;10.098;2023-07-02T11:50:38;14.88;;;9.73;;
48215;SDS011;34005;48.844;10.098;2023-07-02T11:53:06;16.52;;;9.77;;
48215;SDS011;34005;48.844;10.098;2023-07-02T11:55:33;14.38;;;9.63;;
48215;SDS011;34005;48.844;10.098;2023-07-02T11:58:01;16.33;;;9.77;;
48215;SDS011;34005;48.844;10.098;2023-07-02T12:00:29;15.77;;;10.15;;
48215;SDS011;34005;48.844;10.098;2023-07-02T12:02:57;15.45;;;11.05;;
48215;SDS011;34005;48.844;10.098;2023-07-02T12:05:25;16.88;;;10.95;;
48215;SDS011;34005;48.844;10.098;2023-07-02T12:07:52;17.70;;;9.75;;
48215;SDS011;34005;48.844;10.098;2023-07-02T12:10:20;17.08;;;10.85;;
48215;SDS011;34005;48.844;10.098;2023-07-02T12:12:48;15.70;;;10.32;;
48215;SDS011;34005;48.844;10.098;2023-07-02T12:15:15;17.67;;;10.68;;
48215;SDS011;34005;48.844;10.098;2023-07-02T12:17:43;15.98;;;10.25;;
48215;SDS011;34005;48.844;10.098;2023-07-02T12:20:12;19.00;;;10.23;;
48215;SDS011;34005;48.844;10.098;2023-07-02T12:22:40;15.52;;;10.02;;
48215;SDS011;34005;48.844;10.098;2023-07-02T12:25:08;18.77;;;12.13;;
48215;SDS011;34005;48.844;10.098;2023-07-02T12:27:35;15.02;;;9.20;;
48215;SDS011;34005;48.844;10.098;2023-07-02T12:30:03;20.00;;;11.48;;
48215;SDS011;34005;48.844;10.098;2023-07-02T12:32:32;19.40;;;11.68;;
48215;SDS011;34005;48.844;10.098;2023-07-02T12:35:00;15.18;;;10.40;;
48215;SDS011;34005;48.844;10.098;2023-07-02T12:37:29;15.18;;;10.00;;
48215;SDS011;34005;48.844;10.098;2023-07-02T12:39:59;16.75;;;11.10;;
48215;SDS011;34005;48.844;10.098;2023-07-02T12:42:27;17.60;;;11.38;;
48215;SDS011;34005;48.844;10.098;2023-07-02T12:44:54;14.82;;;10.30;;
48215;SDS011;34005;48.844;10.098;2023-07-02T12:47:22;17.20;;;10.25;;
48215;SDS011;34005;48.844;10.098;2023-07-02T12:49:49;17.42;;;11.07;;
48215;SDS011;34005;48.844;10.098;2023-07-02T12:52:17;17.80;;;10.98;;
48215;SDS011;34005;48.844;10.098;2023-07-02T12:54:46;18.17;;;10.95;;
48215;SDS011;34005;48.844;10.098;2023-07-02T12:57:13;16.77;;;11.68;;
48215;SDS011;34005;48.844;10.098;2023-07-02T12:59:45;17.38;;;10.25;;
48215;SDS011;34005;48.844;10.098;2023-07-02T13:02:12;17.60;;;10.60;;
48215;SDS011;34005;48.844;10.098;2023-07-02T13:04:40;16.27;;;10.20;;
48215;SDS011;34005;48.844;10.098;2023-07-02T13:07:08;21.30;;;10.63;;
48215;SDS011;34005;48.844;10.098;2023-07-02T13:09:35;14.52;;;11.13;;
48215;SDS011;34005;48.844;10.098;2023-07-02T13:12:05;14.57;;;10.45;;
48215;SDS011;34005;48.844;10.098;2023-07-02T13:14:33;12.80;;;9.13;;
48215;SDS011;34005;48.844;10.098;2023-07-02T13:17:01;16.08;;;10.63;;
48215;SDS011;34005;48.844;10.098;2023-07-02T13:19:29;17.77;;;10.25;;
48215;SDS011;34005;48.844;10.098;2023-07-02T13:21:56;18.10;;;10.80;;
48215;SDS011;34005;48.844;10.098;2023-07-02T13:24:24;13.32;;;9.35;;
48215;SDS011;34005;48.844;10.098;2023-07-02T13:26:52;15.75;;;10.23;;
48215;SDS011;34005;48.844;10.098;2023-07-02T13:29:21;16.42;;;9.85;;
48215;SDS011;34005;48.844;10.098;2023-07-02T13:31:49;16.33;;;10.52;;
48215;SDS011;34005;48.844;10.098;2023-07-02T13:34:16;14.70;;;10.30;;
48215;SDS011;34005;48.844;10.098;2023-07-02T13:36:44;14.93;;;10.35;;
48215;SDS011;34005;48.844;10.098;2023-07-02T13:39:11;19.55;;;10.75;;
48215;SDS011;34005;48.844;10.098;2023-07-02T13:41:39;15.82;;;10.32;;
48215;SDS011;34005;48.844;10.098;2023-07-02T13:44:07;14.20;;;10.75;;
48215;SDS011;34005;48.844;10.098;2023-07-02T13:46:36;14.25;;;10.15;;
48215;SDS011;34005;48.844;10.098;2023-07-02T13:49:03;16.55;;;10.13;;
48215;SDS011;34005;48.844;10.098;2023-07-02T13:51:31;14.52;;;9.77;;
48215;SDS011;34005;48.844;10.098;2023-07-02T13:53:58;16.77;;;10.38;;
48215;SDS011;34005;48.844;10.098;2023-07-02T13:56:26;17.58;;;10.20;;
48215;SDS011;34005;48.844;10.098;2023-07-02T13:59:04;16.75;;;10.77;;
48215;SDS011;34005;48.844;10.098;2023-07-02T14:01:32;17.17;;;10.43;;
48215;SDS011;34005;48.844;10.098;2023-07-02T14:04:00;14.98;;;10.30;;
48215;SDS011;34005;48.844;10.098;2023-07-02T14:06:28;17.77;;;10.73;;
48215;SDS011;34005;48.844;10.098;2023-07-02T14:08:56;13.90;;;9.82;;
48215;SDS011;34005;48.844;10.098;2023-07-02T14:11:24;18.02;;;11.32;;
48215;SDS011;34005;48.844;10.098;2023-07-02T14:13:54;16.25;;;10.43;;
48215;SDS011;34005;48.844;10.098;2023-07-02T14:16:23;14.63;;;9.70;;
48215;SDS011;34005;48.844;10.098;2023-07-02T14:18:51;16.95;;;10.13;;
48215;SDS011;34005;48.844;10.098;2023-07-02T14:21:19;16.50;;;11.32;;
48215;SDS011;34005;48.844;10.098;2023-07-02T14:23:46;23.38;;;10.82;;
48215;SDS011;34005;48.844;10.098;2023-07-02T14:26:14;16.02;;;10.20;;
48215;SDS011;34005;48.844;10.098;2023-07-02T14:28:42;15.50;;;10.27;;
48215;SDS011;34005;48.844;10.098;2023-07-02T14:31:09;16.35;;;11.15;;
48215;SDS011;34005;48.844;10.098;2023-07-02T14:33:38;16.92;;;11.20;;
48215;SDS011;34005;48.844;10.098;2023-07-02T14:36:06;16.00;;;10.20;;